createdAt,value
2018-03-21T00:01:55.866Z,100126.49
2018-03-21T00:04:29.442Z,100132.03
2018-03-21T00:07:03.239Z,100136.14
2018-03-21T00:09:36.818Z,100135.21
2018-03-21T00:12:10.402Z,100145.23
2018-03-21T00:14:44.162Z,100145.23
2018-03-21T00:17:17.805Z,100148.83
2018-03-21T00:19:51.405Z,100152.41
2018-03-21T00:22:25.139Z,100164.11
2018-03-21T00:24:58.867Z,100159.29
2018-03-21T00:27:32.679Z,100161.13
2018-03-21T00:30:06.399Z,100163.19
2018-03-21T00:32:39.973Z,100163.90
2018-03-21T00:35:13.817Z,100160.61
2018-03-21T00:37:47.591Z,100161.73
2018-03-21T00:40:21.270Z,100161.03
2018-03-21T00:42:54.844Z,100162.25
2018-03-21T00:45:28.581Z,100165.84
2018-03-21T00:48:02.158Z,100169.74
2018-03-21T00:50:35.996Z,100172.81
2018-03-21T00:53:09.593Z,100171.58
2018-03-21T00:55:43.208Z,100170.66
2018-03-21T00:58:16.715Z,100179.78
2018-03-21T01:00:50.432Z,100186.03
2018-03-21T01:03:24.328Z,100180.56
2018-03-21T01:05:58.033Z,100179.53
2018-03-21T01:08:31.647Z,100175.73
2018-03-21T01:11:05.191Z,100176.44
2018-03-21T01:13:38.831Z,100175.42
2018-03-21T01:16:12.501Z,100173.38
2018-03-21T01:18:46.074Z,100173.78
2018-03-21T01:21:25.763Z,100169.67
2018-03-21T01:23:59.438Z,100167.30
2018-03-21T01:26:33.132Z,100168.53
2018-03-21T01:29:06.914Z,100166.37
2018-03-21T01:31:40.596Z,100163.98
2018-03-21T01:34:14.412Z,100166.13
2018-03-21T01:36:48.080Z,100165.46
2018-03-21T01:39:21.926Z,100159.84
2018-03-21T01:41:55.750Z,100161.38
2018-03-21T01:44:29.541Z,100160.55
2018-03-21T01:47:03.167Z,100155.23
2018-03-21T01:49:36.875Z,100157.89
2018-03-21T01:52:10.463Z,100161.36
2018-03-21T01:54:44.023Z,100161.15
2018-03-21T01:57:17.574Z,100165.06
2018-03-21T01:59:51.111Z,100163.20
2018-03-21T02:02:24.853Z,100161.52
2018-03-21T02:04:58.974Z,100167.95
2018-03-21T02:07:32.508Z,100165.05
2018-03-21T02:10:06.151Z,100163.31
2018-03-21T02:12:39.757Z,100171.09
2018-03-21T02:15:13.339Z,100166.25
2018-03-21T02:17:47.082Z,100161.06
2018-03-21T02:20:20.903Z,100167.02
2018-03-21T02:22:54.681Z,100168.12
2018-03-21T02:25:28.272Z,100171.40
2018-03-21T02:28:01.957Z,100166.47
2018-03-21T02:30:35.703Z,100172.61
2018-03-21T02:33:09.426Z,100176.48
2018-03-21T02:35:43.022Z,100166.51
2018-03-21T02:38:16.671Z,100165.27
2018-03-21T02:40:50.250Z,100169.66
2018-03-21T02:43:24.053Z,100163.30
2018-03-21T02:45:57.634Z,100166.36
2018-03-21T02:48:31.237Z,100166.34
2018-03-21T02:51:04.805Z,100168.49
2018-03-21T02:53:38.330Z,100163.49
2018-03-21T02:56:11.936Z,100162.77
2018-03-21T02:58:45.719Z,100160.02
2018-03-21T03:01:19.312Z,100158.06
2018-03-21T03:03:52.858Z,100157.25
2018-03-21T03:06:26.493Z,100162.06
2018-03-21T03:09:00.045Z,100163.71
2018-03-21T03:11:33.683Z,100161.16
2018-03-21T03:14:07.202Z,100168.22
2018-03-21T03:16:40.844Z,100172.70
2018-03-21T03:19:14.413Z,100164.20
2018-03-21T03:21:47.970Z,100168.30
2018-03-21T03:24:21.733Z,100165.34
2018-03-21T03:26:55.290Z,100175.57
2018-03-21T03:29:29.013Z,100167.27
2018-03-21T03:32:02.597Z,100170.29
2018-03-21T03:34:36.353Z,100176.42
2018-03-21T03:37:10.210Z,100178.65
2018-03-21T03:39:43.942Z,100182.41
2018-03-21T03:42:17.517Z,100182.07
2018-03-21T03:44:51.121Z,100183.20
2018-03-21T03:47:24.737Z,100190.19
2018-03-21T03:49:58.397Z,100185.09
2018-03-21T03:52:31.978Z,100195.30
2018-03-21T03:55:05.684Z,100199.91
2018-03-21T03:57:39.282Z,100203.30
2018-03-21T04:00:13.086Z,100204.83
2018-03-21T04:02:46.649Z,100200.86
2018-03-21T04:05:20.349Z,100199.55
2018-03-21T04:07:54.102Z,100205.18
2018-03-21T04:10:27.757Z,100202.34
2018-03-21T04:13:01.338Z,100202.60
2018-03-21T04:15:34.930Z,100197.42
2018-03-21T04:18:09.007Z,100203.12
2018-03-21T04:20:42.688Z,100202.52
2018-03-21T04:23:16.300Z,100205.47
2018-03-21T04:25:49.841Z,100199.83
2018-03-21T04:28:23.462Z,100200.38
2018-03-21T04:30:57.129Z,100199.70
2018-03-21T04:33:30.712Z,100206.31
2018-03-21T04:36:04.249Z,100207.11
2018-03-21T04:38:37.913Z,100208.15
2018-03-21T04:41:11.533Z,100204.86
2018-03-21T04:43:45.082Z,100206.45
2018-03-21T04:46:18.721Z,100201.09
2018-03-21T04:48:52.368Z,100203.47
2018-03-21T04:51:25.903Z,100196.92
2018-03-21T04:53:59.465Z,100204.48
2018-03-21T04:56:33.241Z,100199.48
2018-03-21T04:59:06.779Z,100198.85
2018-03-21T05:01:40.542Z,100196.26
2018-03-21T05:04:14.247Z,100195.02
2018-03-21T05:06:47.789Z,100195.88
2018-03-21T05:09:21.383Z,100200.14
2018-03-21T05:11:55.167Z,100200.11
2018-03-21T05:14:28.893Z,100200.39
2018-03-21T05:17:02.661Z,100205.98
2018-03-21T05:19:36.206Z,100208.33
2018-03-21T05:22:09.764Z,100207.72
2018-03-21T05:24:43.266Z,100204.38
2018-03-21T05:27:17.050Z,100202.63
2018-03-21T05:29:50.629Z,100205.92
2018-03-21T05:32:24.401Z,100203.75
2018-03-21T05:34:58.546Z,100197.61
2018-03-21T05:37:32.245Z,100196.60
2018-03-21T05:40:05.827Z,100197.17
2018-03-21T05:42:39.538Z,100200.28
2018-03-21T05:45:13.073Z,100197.75
2018-03-21T05:47:46.741Z,100194.33
2018-03-21T05:50:21.201Z,100200.02
2018-03-21T05:52:54.890Z,100200.81
2018-03-21T05:55:28.537Z,100204.48
2018-03-21T05:58:02.154Z,100201.97
2018-03-21T06:00:35.878Z,100204.27
2018-03-21T06:03:09.683Z,100200.15
2018-03-21T06:05:43.339Z,100200.38
2018-03-21T06:08:16.970Z,100197.81
2018-03-21T06:10:50.573Z,100200.64
2018-03-21T06:13:24.283Z,100208.98
2018-03-21T06:15:57.872Z,100206.76
2018-03-21T06:18:31.602Z,100209.13
2018-03-21T06:21:05.198Z,100204.64
2018-03-21T06:23:39.005Z,100206.60
2018-03-21T06:26:12.557Z,100215.02
2018-03-21T06:28:46.197Z,100221.70
2018-03-21T06:31:19.763Z,100228.28
2018-03-21T06:33:53.405Z,100224.67
2018-03-21T06:36:27.250Z,100234.53
2018-03-21T06:39:00.947Z,100232.41
2018-03-21T06:41:34.545Z,100234.86
2018-03-21T06:44:08.116Z,100236.66
2018-03-21T06:46:41.738Z,100238.53
2018-03-21T06:49:15.294Z,100247.84
2018-03-21T06:51:48.894Z,100248.11
2018-03-21T06:54:22.619Z,100248.10
2018-03-21T06:56:56.421Z,100260.00
2018-03-21T06:59:30.031Z,100246.78
2018-03-21T07:02:03.693Z,100245.56
2018-03-21T07:04:37.466Z,100245.59
2018-03-21T07:07:11.150Z,100246.67
2018-03-21T07:09:44.674Z,100246.72
2018-03-21T07:12:18.430Z,100256.32
2018-03-21T07:15:03.844Z,100245.91
2018-03-21T07:17:37.610Z,100254.19
2018-03-21T07:20:11.181Z,100261.47
2018-03-21T07:22:44.814Z,100262.80
2018-03-21T07:25:18.345Z,100258.33
2018-03-21T07:27:51.897Z,100268.63
2018-03-21T07:30:25.448Z,100275.95
2018-03-21T07:32:59.002Z,100284.96
2018-03-21T07:35:32.629Z,100296.94
2018-03-21T07:38:06.157Z,100291.31
2018-03-21T07:40:39.833Z,100297.56
2018-03-21T07:43:13.462Z,100290.30
2018-03-21T07:45:47.030Z,100293.82
2018-03-21T07:48:20.594Z,100296.44
2018-03-21T07:50:54.135Z,100299.69
2018-03-21T07:53:27.749Z,100291.19
2018-03-21T07:56:01.479Z,100287.25
2018-03-21T07:58:35.062Z,100293.42
2018-03-21T08:01:08.727Z,100284.27
2018-03-21T08:03:42.449Z,100285.64
2018-03-21T08:06:16.225Z,100279.03
2018-03-21T08:08:49.791Z,100288.43
2018-03-21T08:11:23.514Z,100296.47
2018-03-21T08:13:57.196Z,100294.09
2018-03-21T08:16:30.787Z,100299.98
2018-03-21T08:19:04.401Z,100311.82
2018-03-21T08:21:38.103Z,100311.96
2018-03-21T08:24:11.655Z,100324.14
2018-03-21T08:26:45.406Z,100334.25
2018-03-21T08:29:19.058Z,100340.09
2018-03-21T08:31:52.863Z,100345.23
2018-03-21T08:34:26.609Z,100351.27
2018-03-21T08:37:00.138Z,100365.70
2018-03-21T08:39:33.839Z,100365.38
2018-03-21T08:42:07.578Z,100369.60
2018-03-21T08:44:41.215Z,100372.37
2018-03-21T08:47:14.973Z,100369.72
2018-03-21T08:49:48.619Z,100374.72
2018-03-21T08:52:22.442Z,100376.52
2018-03-21T08:54:56.220Z,100369.42
2018-03-21T08:57:29.782Z,100370.09
2018-03-21T09:00:03.479Z,100370.36
2018-03-21T09:02:37.191Z,100372.09
2018-03-21T09:05:10.858Z,100378.86
2018-03-21T09:07:44.502Z,100375.58
2018-03-21T09:10:18.223Z,100389.53
2018-03-21T09:12:51.802Z,100376.00
2018-03-21T09:15:25.510Z,100375.89
2018-03-21T09:17:59.096Z,100372.14
2018-03-21T09:20:32.753Z,100374.31
2018-03-21T09:23:06.330Z,100370.30
2018-03-21T09:25:40.030Z,100368.81
2018-03-21T09:28:13.766Z,100366.88
2018-03-21T09:30:47.365Z,100366.58
2018-03-21T09:33:21.050Z,100367.68
2018-03-21T09:35:54.645Z,100364.81
2018-03-21T09:38:28.255Z,100361.95
2018-03-21T09:41:01.862Z,100366.19
2018-03-21T09:43:35.467Z,100369.48
2018-03-21T09:46:09.142Z,100356.44
2018-03-21T09:48:42.687Z,100363.52
2018-03-21T09:51:16.270Z,100362.22
2018-03-21T09:53:50.025Z,100359.84
2018-03-21T09:56:23.567Z,100356.44
2018-03-21T09:58:57.162Z,100356.13
2018-03-21T10:01:30.694Z,100359.95
2018-03-21T10:04:04.226Z,100363.22
2018-03-21T10:06:37.794Z,100359.22
2018-03-21T10:09:11.436Z,100356.08
2018-03-21T10:11:45.242Z,100364.87
2018-03-21T10:14:18.752Z,100367.23
2018-03-21T10:16:52.407Z,100367.66
2018-03-21T10:19:25.989Z,100365.47
2018-03-21T10:21:59.763Z,100357.39
2018-03-21T10:24:33.445Z,100368.35
2018-03-21T10:27:07.105Z,100360.24
2018-03-21T10:29:40.910Z,100364.75
2018-03-21T10:32:14.473Z,100369.91
2018-03-21T10:34:48.204Z,100362.91
2018-03-21T10:37:21.846Z,100362.11
2018-03-21T10:39:55.488Z,100352.64
2018-03-21T10:42:29.214Z,100357.48
2018-03-21T10:45:02.793Z,100356.91
2018-03-21T10:47:36.426Z,100353.73
2018-03-21T10:50:10.017Z,100354.53
2018-03-21T10:52:43.538Z,100353.31
2018-03-21T10:55:17.269Z,100350.65
2018-03-21T10:57:50.851Z,100353.19
2018-03-21T11:00:24.386Z,100356.75
2018-03-21T11:03:02.902Z,100359.30
2018-03-21T11:05:36.554Z,100362.23
2018-03-21T11:08:10.179Z,100359.77
2018-03-21T11:10:43.801Z,100364.80
2018-03-21T11:13:17.638Z,100374.38
2018-03-21T11:15:51.467Z,100379.07
2018-03-21T11:18:24.998Z,100362.77
2018-03-21T11:20:58.510Z,100367.14
2018-03-21T11:23:32.186Z,100367.89
2018-03-21T11:26:05.946Z,100365.20
2018-03-21T11:28:39.517Z,100363.49
2018-03-21T11:31:13.038Z,100361.14
2018-03-21T11:33:46.657Z,100351.45
2018-03-21T11:36:20.317Z,100350.83
2018-03-21T11:38:53.849Z,100348.70
2018-03-21T11:41:27.410Z,100347.36
2018-03-21T11:44:00.970Z,100347.14
2018-03-21T11:46:34.597Z,100348.78
2018-03-21T11:49:08.146Z,100340.99
2018-03-21T11:51:41.679Z,100340.03
2018-03-21T11:54:15.457Z,100331.28
2018-03-21T11:56:49.174Z,100338.61
2018-03-21T11:59:22.874Z,100338.92
2018-03-21T12:01:56.454Z,100341.00
2018-03-21T12:04:30.022Z,100342.74
2018-03-21T12:07:03.872Z,100337.78
2018-03-21T12:09:37.783Z,100337.30
2018-03-21T12:12:11.430Z,100339.28
2018-03-21T12:14:45.032Z,100340.00
2018-03-21T12:17:18.743Z,100336.58
2018-03-21T12:19:52.350Z,100334.00
2018-03-21T12:22:26.082Z,100330.06
2018-03-21T12:24:59.677Z,100321.81
2018-03-21T12:27:33.241Z,100311.41
2018-03-21T12:30:06.798Z,100311.61
2018-03-21T12:32:40.485Z,100307.90
2018-03-21T12:35:14.055Z,100302.59
2018-03-21T12:37:47.722Z,100304.34
2018-03-21T12:40:21.294Z,100299.75
2018-03-21T12:42:54.974Z,100300.65
2018-03-21T12:45:28.757Z,100296.36
2018-03-21T12:48:02.421Z,100292.88
2018-03-21T12:50:35.940Z,100291.86
2018-03-21T12:53:09.485Z,100282.78
2018-03-21T12:55:43.071Z,100279.01
2018-03-21T12:58:16.822Z,100268.79
2018-03-21T13:00:50.367Z,100263.70
2018-03-21T13:03:23.970Z,100261.00
2018-03-21T13:05:57.545Z,100255.14
2018-03-21T13:08:31.245Z,100265.49
2018-03-21T13:11:04.941Z,100262.97
2018-03-21T13:13:38.586Z,100266.80
2018-03-21T13:16:12.266Z,100271.83
2018-03-21T13:18:46.038Z,100271.41
2018-03-21T13:21:19.781Z,100274.66
2018-03-21T13:23:53.386Z,100267.88
2018-03-21T13:26:27.022Z,100261.52
2018-03-21T13:29:00.649Z,100257.77
2018-03-21T13:31:34.263Z,100248.91
2018-03-21T13:34:08.011Z,100254.16
2018-03-21T13:36:41.601Z,100256.39
2018-03-21T13:39:15.243Z,100251.10
2018-03-21T13:41:48.780Z,100249.01
2018-03-21T13:44:22.535Z,100262.27
2018-03-21T13:46:56.117Z,100259.67
2018-03-21T13:49:29.701Z,100268.94
2018-03-21T13:52:03.250Z,100260.80
2018-03-21T13:54:36.757Z,100268.01
2018-03-21T13:57:22.693Z,100267.66
2018-03-21T13:59:56.413Z,100259.86
2018-03-21T14:02:30.045Z,100249.38
2018-03-21T14:05:03.740Z,100249.67
2018-03-21T14:07:37.356Z,100244.28
2018-03-21T14:10:10.945Z,100249.14
2018-03-21T14:12:44.449Z,100249.28
2018-03-21T14:15:17.983Z,100239.84
2018-03-21T14:17:51.569Z,100243.26
2018-03-21T14:20:25.113Z,100239.31
2018-03-21T14:22:58.931Z,100235.38
2018-03-21T14:25:32.537Z,100233.10
2018-03-21T14:28:06.061Z,100235.08
2018-03-21T14:30:39.601Z,100216.47
2018-03-21T14:33:13.297Z,100222.57
2018-03-21T14:35:46.859Z,100222.20
2018-03-21T14:38:20.394Z,100210.42
2018-03-21T14:40:53.978Z,100213.75
2018-03-21T14:43:27.508Z,100221.98
2018-03-21T14:46:01.158Z,100223.20
2018-03-21T14:48:34.783Z,100222.65
2018-03-21T14:51:08.434Z,100216.64
2018-03-21T14:53:42.129Z,100209.13
2018-03-21T14:56:15.782Z,100211.98
2018-03-21T14:58:49.579Z,100203.27
2018-03-21T15:01:23.197Z,100203.87
2018-03-21T15:03:56.777Z,100195.02
2018-03-21T15:06:30.317Z,100196.52
2018-03-21T15:09:03.898Z,100194.22
2018-03-21T15:11:37.673Z,100194.97
2018-03-21T15:14:11.267Z,100198.30
2018-03-21T15:16:44.955Z,100194.59
2018-03-21T15:19:18.790Z,100194.14
2018-03-21T15:21:52.392Z,100189.19
2018-03-21T15:24:25.997Z,100188.39
2018-03-21T15:26:59.686Z,100186.42
2018-03-21T15:29:33.503Z,100184.64
2018-03-21T15:32:07.073Z,100180.78
2018-03-21T15:34:40.950Z,100180.84
2018-03-21T15:37:14.585Z,100183.51
2018-03-21T15:39:48.232Z,100175.53
2018-03-21T15:42:21.873Z,100171.77
2018-03-21T15:44:55.686Z,100161.28
2018-03-21T15:47:29.232Z,100161.34
2018-03-21T15:50:02.845Z,100155.27
2018-03-21T15:52:36.505Z,100148.63
2018-03-21T15:55:10.185Z,100148.49
2018-03-21T15:57:43.818Z,100137.95
2018-03-21T16:00:17.375Z,100143.14
2018-03-21T16:02:50.928Z,100142.25
2018-03-21T16:05:24.606Z,100141.77
2018-03-21T16:07:58.185Z,100141.44
2018-03-21T16:10:31.830Z,100133.70
2018-03-21T16:13:05.607Z,100136.55
2018-03-21T16:15:39.154Z,100135.83
2018-03-21T16:18:12.762Z,100134.50
2018-03-21T16:20:46.395Z,100127.08
2018-03-21T16:23:19.936Z,100125.46
2018-03-21T16:25:53.657Z,100125.39
2018-03-21T16:28:27.187Z,100127.59
2018-03-21T16:31:00.938Z,100124.36
2018-03-21T16:33:34.502Z,100129.89
2018-03-21T16:36:08.124Z,100126.73
2018-03-21T16:38:41.841Z,100126.05
2018-03-21T16:41:15.494Z,100124.09
2018-03-21T16:43:49.010Z,100123.38
2018-03-21T16:46:22.565Z,100121.05
2018-03-21T16:48:56.286Z,100122.09
2018-03-21T16:51:29.994Z,100119.28
2018-03-21T16:54:04.004Z,100115.88
2018-03-21T16:56:37.489Z,100116.07
2018-03-21T16:59:11.293Z,100126.32
2018-03-21T17:01:44.827Z,100121.59
2018-03-21T17:04:18.401Z,100130.34
2018-03-21T17:06:52.162Z,100122.88
2018-03-21T17:09:25.702Z,100125.02
2018-03-21T17:11:59.326Z,100128.63
2018-03-21T17:14:32.989Z,100130.26
2018-03-21T17:17:06.519Z,100131.49
2018-03-21T17:19:40.255Z,100134.45
2018-03-21T17:22:13.814Z,100128.37
2018-03-21T17:24:47.558Z,100131.88
2018-03-21T17:27:21.154Z,100127.56
2018-03-21T17:29:54.937Z,100125.57
2018-03-21T17:32:28.681Z,100126.44
2018-03-21T17:35:02.468Z,100118.21
2018-03-21T17:37:36.272Z,100119.55
2018-03-21T17:40:09.921Z,100113.27
2018-03-21T17:42:43.495Z,100108.66
2018-03-21T17:45:17.029Z,100118.64
2018-03-21T17:47:50.614Z,100118.16
2018-03-21T17:50:24.195Z,100117.23
2018-03-21T17:52:57.779Z,100122.23
2018-03-21T17:55:31.409Z,100114.77
2018-03-21T17:58:04.966Z,100122.97
2018-03-21T18:00:38.622Z,100116.13
2018-03-21T18:03:12.273Z,100108.86
2018-03-21T18:05:45.849Z,100104.61
2018-03-21T18:08:19.589Z,100105.75
2018-03-21T18:10:53.342Z,100113.77
2018-03-21T18:13:26.868Z,100105.56
2018-03-21T18:16:00.413Z,100101.25
2018-03-21T18:18:34.003Z,100104.21
2018-03-21T18:21:07.636Z,100104.08
2018-03-21T18:23:41.158Z,100100.22
2018-03-21T18:26:14.861Z,100097.02
2018-03-21T18:28:48.673Z,100101.19
2018-03-21T18:31:22.295Z,100093.96
2018-03-21T18:33:55.858Z,100095.81
2018-03-21T18:36:29.477Z,100097.67
2018-03-21T18:39:03.055Z,100090.04
2018-03-21T18:41:36.581Z,100091.90
2018-03-21T18:44:10.430Z,100093.40
2018-03-21T18:46:43.938Z,100099.45
2018-03-21T18:49:17.635Z,100087.66
2018-03-21T18:51:51.323Z,100090.07
2018-03-21T18:54:25.054Z,100083.89
2018-03-21T18:56:58.777Z,100078.91
2018-03-21T18:59:32.526Z,100079.57
2018-03-21T19:02:06.251Z,100074.92
2018-03-21T19:04:39.938Z,100081.32
2018-03-21T19:07:13.553Z,100086.36
2018-03-21T19:09:47.255Z,100081.50
2018-03-21T19:12:20.846Z,100084.09
2018-03-21T19:14:54.607Z,100078.08
2018-03-21T19:17:28.321Z,100072.14
2018-03-21T19:20:01.908Z,100072.73
2018-03-21T19:22:35.606Z,100072.20
2018-03-21T19:25:09.327Z,100076.47
2018-03-21T19:27:42.851Z,100072.91
2018-03-21T19:30:16.587Z,100070.52
2018-03-21T19:32:50.286Z,100075.36
2018-03-21T19:35:24.047Z,100067.08
2018-03-21T19:37:57.807Z,100072.53
2018-03-21T19:40:31.466Z,100066.66
2018-03-21T19:43:05.183Z,100068.63
2018-03-21T19:45:38.959Z,100066.70
2018-03-21T19:48:12.566Z,100059.08
2018-03-21T19:50:46.262Z,100053.29
2018-03-21T19:53:20.001Z,100046.81
2018-03-21T19:55:53.691Z,100044.84
2018-03-21T19:58:27.383Z,100041.80
2018-03-21T20:01:01.048Z,100038.00
2018-03-21T20:03:34.682Z,100040.05
2018-03-21T20:06:08.409Z,100034.41
2018-03-21T20:08:42.126Z,100036.43
2018-03-21T20:11:15.715Z,100031.00
2018-03-21T20:13:49.437Z,100032.45
2018-03-21T20:16:23.006Z,100035.58
2018-03-21T20:18:56.607Z,100033.06
2018-03-21T20:21:30.310Z,100021.06
2018-03-21T20:24:04.010Z,100021.11
2018-03-21T20:26:37.732Z,100017.44
2018-03-21T20:29:11.315Z,100015.59
2018-03-21T20:31:44.957Z,100006.91
2018-03-21T20:34:18.698Z,100002.38
2018-03-21T20:36:52.350Z,100002.80
2018-03-21T20:39:25.959Z,100002.52
2018-03-21T20:41:59.537Z,99993.17
2018-03-21T20:44:33.187Z,99990.02
2018-03-21T20:47:06.734Z,99988.95
2018-03-21T20:49:40.318Z,99993.12
2018-03-21T20:52:13.975Z,99991.82
2018-03-21T20:54:47.686Z,99989.48
2018-03-21T20:57:21.527Z,99985.91
2018-03-21T20:59:55.346Z,99990.70
2018-03-21T21:02:28.970Z,99992.45
2018-03-21T21:05:02.598Z,99989.58
2018-03-21T21:07:36.181Z,99991.98
2018-03-21T21:10:09.827Z,99985.66
2018-03-21T21:12:43.438Z,99980.49
2018-03-21T21:15:16.984Z,99984.03
2018-03-21T21:17:50.825Z,99978.74
2018-03-21T21:20:24.666Z,99973.70
2018-03-21T21:22:58.211Z,99970.31
2018-03-21T21:25:31.923Z,99965.10
2018-03-21T21:28:05.574Z,99959.03
2018-03-21T21:30:39.229Z,99959.25
2018-03-21T21:33:12.955Z,99954.78
2018-03-21T21:35:46.783Z,99954.59
2018-03-21T21:38:20.466Z,99952.80
2018-03-21T21:40:54.122Z,99949.17
2018-03-21T21:43:27.722Z,99954.44
2018-03-21T21:46:01.307Z,99952.51
2018-03-21T21:48:35.228Z,99954.98
2018-03-21T21:51:09.009Z,99942.43
2018-03-21T21:53:42.711Z,99933.69
2018-03-21T21:56:16.351Z,99929.88
2018-03-21T21:58:50.142Z,99931.12
2018-03-21T22:01:23.710Z,99923.20
2018-03-21T22:03:57.430Z,99923.30
2018-03-21T22:06:31.139Z,99921.12
2018-03-21T22:09:04.738Z,99919.58
2018-03-21T22:11:38.499Z,99920.00
2018-03-21T22:14:12.234Z,99917.50
2018-03-21T22:16:45.807Z,99910.68
2018-03-21T22:19:19.498Z,99903.11
2018-03-21T22:21:53.122Z,99902.92
2018-03-21T22:24:26.826Z,99895.45
2018-03-21T22:27:00.590Z,99890.62
2018-03-21T22:29:34.149Z,99891.48
2018-03-21T22:32:07.788Z,99882.05
2018-03-21T22:34:41.591Z,99873.47
2018-03-21T22:37:15.179Z,99868.58
2018-03-21T22:39:49.018Z,99873.70
2018-03-21T22:42:22.790Z,99866.38
2018-03-21T22:44:56.446Z,99859.92
2018-03-21T22:47:30.162Z,99853.03
2018-03-21T22:50:03.777Z,99854.73
2018-03-21T22:52:37.366Z,99844.09
2018-03-21T22:55:10.959Z,99843.82
2018-03-21T22:57:44.742Z,99839.66
2018-03-21T23:00:18.529Z,99839.32
2018-03-21T23:02:52.238Z,99834.11
2018-03-21T23:05:25.798Z,99824.38
2018-03-21T23:07:59.473Z,99827.80
2018-03-21T23:10:33.069Z,99818.22
2018-03-21T23:13:06.754Z,99816.30
2018-03-21T23:15:40.377Z,99814.67
2018-03-21T23:18:13.943Z,99813.70
2018-03-21T23:20:47.692Z,99810.59
2018-03-21T23:23:21.242Z,99802.39
2018-03-21T23:25:55.018Z,99809.46
2018-03-21T23:28:28.706Z,99794.97
2018-03-21T23:31:02.531Z,99789.70
2018-03-21T23:33:36.111Z,99787.09
2018-03-21T23:36:09.786Z,99781.09
2018-03-21T23:38:43.392Z,99785.69
2018-03-21T23:41:17.021Z,99780.45
2018-03-21T23:43:50.771Z,99788.77
2018-03-21T23:46:24.388Z,99789.00
2018-03-21T23:48:57.991Z,99787.39
2018-03-21T23:51:31.759Z,99782.15
2018-03-21T23:54:05.326Z,99785.83
2018-03-21T23:56:38.945Z,99778.27
2018-03-21T23:59:12.642Z,99782.73
